ホノルル の空港の天気 - METARとTAF

ホノルル国際空港 ( PHNL / HNL ) - アメリカ ハワイ州ホノルル
飛行場実況気象(Metar)
観測時間10/23 16:53 HST (10/24 02:53 UTC)
風向・風速北北東 6m/s
視程10km以上
天気現象
少しの雲 雲底高度 760m
全天の4割程度の雲 雲底高度 1370m
気温30℃
湿度53%
気圧1011.8hPa
METARPHNL 240253Z 03011KT 10SM FEW025 SCT045 30/19 A2988 RMK AO2 SLP118 T03000194 55002
過去の天気等 Google飛行場航空写真 Wunderground天気予報

過去48時間のMETAR

飛行場予報(TAF)
発表時間: 10/23 16:49 HST (10/24 02:49 UTC)
予報対象時間: 23日17時 HST ~ 24日20時 HST
風向・風速北東 6m/s
視程10km以上
少しの雲 雲底高度 1070m
全天の4割程度の雲 雲底高度 1520m
23日20時 HST から
風向・風速東北東 4m/s
視程10km以上
少しの雲 雲底高度 910m
全天の4割程度の雲 雲底高度 1370m
24日2時 HST から
風向・風速北 2m/s
視程10km以上
少しの雲 雲底高度 910m
24日10時 HST から
風向・風速東南東 4m/s
視程10km以上
少しの雲 雲底高度 760m
全天の4割程度の雲 雲底高度 1370m
PHNL 240249Z 2403/2506 05011KT P6SM FEW035 SCT050
FM240600 07007KT P6SM FEW030 SCT045
FM241200 35004KT P6SM FEW030
FM242000 12008KT P6SM FEW025 SCT045